sensor_id;sensor_type;location;lat;lon;timestamp;temperature;humidity
25753;DHT22;13600;50.816;4.416;2023-02-15T00:01:55;7.00;99.90
25753;DHT22;13600;50.816;4.416;2023-02-15T00:04:23;7.10;99.90
25753;DHT22;13600;50.816;4.416;2023-02-15T00:06:49;7.10;99.90
25753;DHT22;13600;50.816;4.416;2023-02-15T00:09:15;7.10;99.90
25753;DHT22;13600;50.816;4.416;2023-02-15T00:11:41;6.70;99.90
25753;DHT22;13600;50.816;4.416;2023-02-15T00:14:22;6.60;99.90
25753;DHT22;13600;50.816;4.416;2023-02-15T00:16:49;6.40;99.90
25753;DHT22;13600;50.816;4.416;2023-02-15T00:19:17;6.20;99.90
25753;DHT22;13600;50.816;4.416;2023-02-15T00:21:43;6.20;99.90
25753;DHT22;13600;50.816;4.416;2023-02-15T00:24:12;5.90;99.90
25753;DHT22;13600;50.816;4.416;2023-02-15T00:26:39;5.80;99.90
25753;DHT22;13600;50.816;4.416;2023-02-15T00:29:06;6.30;99.90
25753;DHT22;13600;50.816;4.416;2023-02-15T00:31:32;6.20;99.90
25753;DHT22;13600;50.816;4.416;2023-02-15T00:34:15;6.50;99.90
25753;DHT22;13600;50.816;4.416;2023-02-15T00:36:41;6.60;99.90
25753;DHT22;13600;50.816;4.416;2023-02-15T00:39:08;6.70;99.90
25753;DHT22;13600;50.816;4.416;2023-02-15T00:41:34;6.70;99.90
25753;DHT22;13600;50.816;4.416;2023-02-15T00:44:01;6.20;99.90
25753;DHT22;13600;50.816;4.416;2023-02-15T00:46:27;6.10;99.90
25753;DHT22;13600;50.816;4.416;2023-02-15T00:48:53;6.30;99.90
25753;DHT22;13600;50.816;4.416;2023-02-15T00:51:20;6.30;99.90
25753;DHT22;13600;50.816;4.416;2023-02-15T00:53:46;6.20;99.90
25753;DHT22;13600;50.816;4.416;2023-02-15T00:56:12;6.20;99.90
25753;DHT22;13600;50.816;4.416;2023-02-15T00:58:39;6.30;99.90
25753;DHT22;13600;50.816;4.416;2023-02-15T01:01:08;6.40;99.90
25753;DHT22;13600;50.816;4.416;2023-02-15T01:03:34;6.40;99.90
25753;DHT22;13600;50.816;4.416;2023-02-15T01:06:00;6.10;99.90
25753;DHT22;13600;50.816;4.416;2023-02-15T01:08:27;5.70;99.90
25753;DHT22;13600;50.816;4.416;2023-02-15T01:10:53;5.40;99.90
25753;DHT22;13600;50.816;4.416;2023-02-15T01:13:19;5.60;99.90
25753;DHT22;13600;50.816;4.416;2023-02-15T01:15:45;5.60;99.90
25753;DHT22;13600;50.816;4.416;2023-02-15T01:18:11;5.60;99.90
25753;DHT22;13600;50.816;4.416;2023-02-15T01:20:39;5.70;99.90
25753;DHT22;13600;50.816;4.416;2023-02-15T01:23:07;6.10;99.90
25753;DHT22;13600;50.816;4.416;2023-02-15T01:25:34;6.40;99.90
25753;DHT22;13600;50.816;4.416;2023-02-15T01:28:00;6.50;99.90
25753;DHT22;13600;50.816;4.416;2023-02-15T01:30:26;6.20;99.90
25753;DHT22;13600;50.816;4.416;2023-02-15T01:32:51;6.00;99.90
25753;DHT22;13600;50.816;4.416;2023-02-15T01:35:17;5.90;99.90
25753;DHT22;13600;50.816;4.416;2023-02-15T01:37:44;6.10;99.90
25753;DHT22;13600;50.816;4.416;2023-02-15T01:40:15;6.10;99.90
25753;DHT22;13600;50.816;4.416;2023-02-15T01:42:41;5.80;99.90
25753;DHT22;13600;50.816;4.416;2023-02-15T01:45:31;5.60;99.90
25753;DHT22;13600;50.816;4.416;2023-02-15T01:48:13;5.80;99.90
25753;DHT22;13600;50.816;4.416;2023-02-15T01:50:44;6.00;99.90
25753;DHT22;13600;50.816;4.416;2023-02-15T01:53:21;6.00;99.90
25753;DHT22;13600;50.816;4.416;2023-02-15T01:55:53;5.70;99.90
25753;DHT22;13600;50.816;4.416;2023-02-15T01:58:22;5.30;99.90
25753;DHT22;13600;50.816;4.416;2023-02-15T02:00:48;5.20;99.90
25753;DHT22;13600;50.816;4.416;2023-02-15T02:03:14;5.10;99.90
25753;DHT22;13600;50.816;4.416;2023-02-15T02:05:40;5.00;99.90
25753;DHT22;13600;50.816;4.416;2023-02-15T02:08:07;5.00;99.90
25753;DHT22;13600;50.816;4.416;2023-02-15T02:10:35;4.90;99.90
25753;DHT22;13600;50.816;4.416;2023-02-15T02:13:04;4.90;99.90
25753;DHT22;13600;50.816;4.416;2023-02-15T02:18:11;5.60;99.90
25753;DHT22;13600;50.816;4.416;2023-02-15T02:21:11;5.60;99.90
25753;DHT22;13600;50.816;4.416;2023-02-15T02:26:54;5.10;99.90
25753;DHT22;13600;50.816;4.416;2023-02-15T02:35:06;5.70;99.90
25753;DHT22;13600;50.816;4.416;2023-02-15T02:38:00;5.50;99.90
25753;DHT22;13600;50.816;4.416;2023-02-15T02:43:04;4.80;99.90
25753;DHT22;13600;50.816;4.416;2023-02-15T02:45:44;4.50;99.90
25753;DHT22;13600;50.816;4.416;2023-02-15T02:48:18;4.50;99.90
25753;DHT22;13600;50.816;4.416;2023-02-15T02:50:45;4.80;99.90
25753;DHT22;13600;50.816;4.416;2023-02-15T02:53:10;4.90;99.90
25753;DHT22;13600;50.816;4.416;2023-02-15T02:55:57;4.80;99.90
25753;DHT22;13600;50.816;4.416;2023-02-15T02:58:47;4.80;99.90
25753;DHT22;13600;50.816;4.416;2023-02-15T03:01:19;4.90;99.90
25753;DHT22;13600;50.816;4.416;2023-02-15T03:04:15;4.90;99.90
25753;DHT22;13600;50.816;4.416;2023-02-15T03:07:16;5.30;99.90
25753;DHT22;13600;50.816;4.416;2023-02-15T03:09:50;5.20;99.90
25753;DHT22;13600;50.816;4.416;2023-02-15T03:12:18;5.10;99.90
25753;DHT22;13600;50.816;4.416;2023-02-15T03:14:55;4.80;99.90
25753;DHT22;13600;50.816;4.416;2023-02-15T03:17:23;4.70;99.90
25753;DHT22;13600;50.816;4.416;2023-02-15T03:19:53;4.90;99.90
25753;DHT22;13600;50.816;4.416;2023-02-15T03:22:26;5.20;99.90
25753;DHT22;13600;50.816;4.416;2023-02-15T03:25:02;5.30;99.90
25753;DHT22;13600;50.816;4.416;2023-02-15T03:27:47;5.30;99.90
25753;DHT22;13600;50.816;4.416;2023-02-15T03:30:15;5.00;99.90
25753;DHT22;13600;50.816;4.416;2023-02-15T03:32:43;4.80;99.90
25753;DHT22;13600;50.816;4.416;2023-02-15T03:35:10;4.90;99.90
25753;DHT22;13600;50.816;4.416;2023-02-15T03:37:42;5.00;99.90
25753;DHT22;13600;50.816;4.416;2023-02-15T03:43:29;4.50;99.90
25753;DHT22;13600;50.816;4.416;2023-02-15T03:46:01;4.50;99.90
25753;DHT22;13600;50.816;4.416;2023-02-15T03:48:39;4.70;99.90
25753;DHT22;13600;50.816;4.416;2023-02-15T03:51:12;4.80;99.90
25753;DHT22;13600;50.816;4.416;2023-02-15T03:57:01;5.00;99.90
25753;DHT22;13600;50.816;4.416;2023-02-15T03:59:45;4.90;99.90
25753;DHT22;13600;50.816;4.416;2023-02-15T04:02:38;4.60;99.90
25753;DHT22;13600;50.816;4.416;2023-02-15T04:05:05;4.40;99.90
25753;DHT22;13600;50.816;4.416;2023-02-15T04:07:31;4.30;99.90
25753;DHT22;13600;50.816;4.416;2023-02-15T04:09:56;4.30;99.90
25753;DHT22;13600;50.816;4.416;2023-02-15T04:12:41;4.30;99.90
25753;DHT22;13600;50.816;4.416;2023-02-15T04:15:08;4.70;99.90
25753;DHT22;13600;50.816;4.416;2023-02-15T04:17:55;4.90;99.90
25753;DHT22;13600;50.816;4.416;2023-02-15T04:20:20;4.70;99.90
25753;DHT22;13600;50.816;4.416;2023-02-15T04:23:08;4.40;99.90
25753;DHT22;13600;50.816;4.416;2023-02-15T04:25:52;4.30;99.90
25753;DHT22;13600;50.816;4.416;2023-02-15T04:28:17;4.10;99.90
25753;DHT22;13600;50.816;4.416;2023-02-15T04:30:43;3.80;99.90
25753;DHT22;13600;50.816;4.416;2023-02-15T04:33:08;3.90;99.90
25753;DHT22;13600;50.816;4.416;2023-02-15T04:35:35;4.20;99.90
25753;DHT22;13600;50.816;4.416;2023-02-15T04:38:01;4.50;99.90
25753;DHT22;13600;50.816;4.416;2023-02-15T04:40:26;4.40;99.90
25753;DHT22;13600;50.816;4.416;2023-02-15T04:42:52;4.20;99.90
25753;DHT22;13600;50.816;4.416;2023-02-15T04:45:18;4.00;99.90
25753;DHT22;13600;50.816;4.416;2023-02-15T04:47:44;4.10;99.90
25753;DHT22;13600;50.816;4.416;2023-02-15T04:50:10;4.50;99.90
25753;DHT22;13600;50.816;4.416;2023-02-15T04:52:36;4.60;99.90
25753;DHT22;13600;50.816;4.416;2023-02-15T04:55:01;4.60;99.90
25753;DHT22;13600;50.816;4.416;2023-02-15T04:57:27;4.50;99.90
25753;DHT22;13600;50.816;4.416;2023-02-15T04:59:53;4.40;99.90
25753;DHT22;13600;50.816;4.416;2023-02-15T05:02:20;4.60;99.90
25753;DHT22;13600;50.816;4.416;2023-02-15T05:04:45;4.80;99.90
25753;DHT22;13600;50.816;4.416;2023-02-15T05:07:11;4.90;99.90
25753;DHT22;13600;50.816;4.416;2023-02-15T05:09:37;4.70;99.90
25753;DHT22;13600;50.816;4.416;2023-02-15T05:12:02;4.90;99.90
25753;DHT22;13600;50.816;4.416;2023-02-15T05:14:28;4.90;99.90
25753;DHT22;13600;50.816;4.416;2023-02-15T05:16:54;4.70;99.90
25753;DHT22;13600;50.816;4.416;2023-02-15T05:19:19;4.70;99.90
25753;DHT22;13600;50.816;4.416;2023-02-15T05:21:45;4.70;99.90
25753;DHT22;13600;50.816;4.416;2023-02-15T05:24:11;4.60;99.90
25753;DHT22;13600;50.816;4.416;2023-02-15T05:26:55;4.20;99.90
25753;DHT22;13600;50.816;4.416;2023-02-15T05:29:39;4.00;99.90
25753;DHT22;13600;50.816;4.416;2023-02-15T05:32:06;4.00;99.90
25753;DHT22;13600;50.816;4.416;2023-02-15T05:34:32;4.30;99.90
25753;DHT22;13600;50.816;4.416;2023-02-15T05:36:57;4.50;99.90
25753;DHT22;13600;50.816;4.416;2023-02-15T05:39:23;4.40;99.90
25753;DHT22;13600;50.816;4.416;2023-02-15T05:41:49;4.30;99.90
25753;DHT22;13600;50.816;4.416;2023-02-15T05:44:14;4.30;99.90
25753;DHT22;13600;50.816;4.416;2023-02-15T05:46:40;4.40;99.90
25753;DHT22;13600;50.816;4.416;2023-02-15T05:49:06;4.30;99.90
25753;DHT22;13600;50.816;4.416;2023-02-15T05:51:31;4.00;99.90
25753;DHT22;13600;50.816;4.416;2023-02-15T05:53:57;3.80;99.90
25753;DHT22;13600;50.816;4.416;2023-02-15T05:56:23;3.80;99.90
25753;DHT22;13600;50.816;4.416;2023-02-15T05:58:48;3.90;99.90
25753;DHT22;13600;50.816;4.416;2023-02-15T06:01:18;3.90;99.90
25753;DHT22;13600;50.816;4.416;2023-02-15T06:03:44;4.00;99.90
25753;DHT22;13600;50.816;4.416;2023-02-15T06:06:11;4.10;99.90
25753;DHT22;13600;50.816;4.416;2023-02-15T06:08:38;4.20;99.90
25753;DHT22;13600;50.816;4.416;2023-02-15T06:11:05;4.50;99.90
25753;DHT22;13600;50.816;4.416;2023-02-15T06:13:33;4.10;99.90
25753;DHT22;13600;50.816;4.416;2023-02-15T06:16:01;4.20;99.90
25753;DHT22;13600;50.816;4.416;2023-02-15T06:18:28;4.20;99.90
25753;DHT22;13600;50.816;4.416;2023-02-15T06:20:54;4.10;99.90
25753;DHT22;13600;50.816;4.416;2023-02-15T06:23:19;4.20;99.90
25753;DHT22;13600;50.816;4.416;2023-02-15T06:25:45;4.10;99.90
25753;DHT22;13600;50.816;4.416;2023-02-15T06:28:12;4.10;99.90
25753;DHT22;13600;50.816;4.416;2023-02-15T06:30:37;4.30;99.90
25753;DHT22;13600;50.816;4.416;2023-02-15T06:33:03;4.50;99.90
25753;DHT22;13600;50.816;4.416;2023-02-15T06:35:29;4.40;99.90
25753;DHT22;13600;50.816;4.416;2023-02-15T06:37:54;4.00;99.90
25753;DHT22;13600;50.816;4.416;2023-02-15T06:40:22;3.90;99.90
25753;DHT22;13600;50.816;4.416;2023-02-15T06:42:49;4.00;99.90
25753;DHT22;13600;50.816;4.416;2023-02-15T06:45:15;4.10;99.90
25753;DHT22;13600;50.816;4.416;2023-02-15T06:47:42;4.20;99.90
25753;DHT22;13600;50.816;4.416;2023-02-15T06:50:08;4.20;99.90
25753;DHT22;13600;50.816;4.416;2023-02-15T06:52:34;4.20;99.90
25753;DHT22;13600;50.816;4.416;2023-02-15T06:54:59;4.30;99.90
25753;DHT22;13600;50.816;4.416;2023-02-15T06:57:25;4.50;99.90
25753;DHT22;13600;50.816;4.416;2023-02-15T06:59:51;4.50;99.90
25753;DHT22;13600;50.816;4.416;2023-02-15T07:02:18;4.50;99.90
25753;DHT22;13600;50.816;4.416;2023-02-15T07:04:43;4.40;99.90
25753;DHT22;13600;50.816;4.416;2023-02-15T07:07:11;4.10;99.90
25753;DHT22;13600;50.816;4.416;2023-02-15T07:09:37;4.30;99.90
25753;DHT22;13600;50.816;4.416;2023-02-15T07:12:04;4.40;99.90
25753;DHT22;13600;50.816;4.416;2023-02-15T07:14:56;4.30;99.90
25753;DHT22;13600;50.816;4.416;2023-02-15T07:17:23;4.20;99.90
25753;DHT22;13600;50.816;4.416;2023-02-15T07:19:49;3.90;99.90
25753;DHT22;13600;50.816;4.416;2023-02-15T07:22:14;3.80;99.90
25753;DHT22;13600;50.816;4.416;2023-02-15T07:24:40;3.90;99.90
25753;DHT22;13600;50.816;4.416;2023-02-15T07:27:07;3.90;99.90
25753;DHT22;13600;50.816;4.416;2023-02-15T07:29:32;3.90;99.90
25753;DHT22;13600;50.816;4.416;2023-02-15T07:31:58;4.20;99.90
25753;DHT22;13600;50.816;4.416;2023-02-15T07:34:24;4.40;99.90
25753;DHT22;13600;50.816;4.416;2023-02-15T07:36:52;4.50;99.90
25753;DHT22;13600;50.816;4.416;2023-02-15T07:39:20;4.60;99.90
25753;DHT22;13600;50.816;4.416;2023-02-15T07:41:45;4.70;99.90
25753;DHT22;13600;50.816;4.416;2023-02-15T07:44:14;5.00;99.90
25753;DHT22;13600;50.816;4.416;2023-02-15T07:46:40;5.30;99.90
25753;DHT22;13600;50.816;4.416;2023-02-15T07:49:06;5.50;99.90
25753;DHT22;13600;50.816;4.416;2023-02-15T07:51:32;5.70;99.90
25753;DHT22;13600;50.816;4.416;2023-02-15T07:53:58;5.70;99.90
25753;DHT22;13600;50.816;4.416;2023-02-15T07:56:23;5.50;99.90
25753;DHT22;13600;50.816;4.416;2023-02-15T07:58:49;5.60;99.90
25753;DHT22;13600;50.816;4.416;2023-02-15T08:03:47;5.90;99.90
25753;DHT22;13600;50.816;4.416;2023-02-15T08:06:12;5.90;99.90
25753;DHT22;13600;50.816;4.416;2023-02-15T08:08:39;5.80;99.90
25753;DHT22;13600;50.816;4.416;2023-02-15T08:14:06;5.50;99.90
25753;DHT22;13600;50.816;4.416;2023-02-15T08:16:38;5.40;99.90
25753;DHT22;13600;50.816;4.416;2023-02-15T08:19:19;5.50;99.90
25753;DHT22;13600;50.816;4.416;2023-02-15T08:21:50;5.60;99.90
25753;DHT22;13600;50.816;4.416;2023-02-15T08:24:18;5.80;99.90
25753;DHT22;13600;50.816;4.416;2023-02-15T08:26:46;6.10;99.90
25753;DHT22;13600;50.816;4.416;2023-02-15T08:29:14;6.40;99.90
25753;DHT22;13600;50.816;4.416;2023-02-15T08:31:41;6.70;99.90
25753;DHT22;13600;50.816;4.416;2023-02-15T08:34:09;6.80;99.90
25753;DHT22;13600;50.816;4.416;2023-02-15T08:36:35;6.70;99.90
25753;DHT22;13600;50.816;4.416;2023-02-15T08:39:03;6.90;99.90
25753;DHT22;13600;50.816;4.416;2023-02-15T08:41:31;7.20;99.90
25753;DHT22;13600;50.816;4.416;2023-02-15T08:44:03;7.40;99.90
25753;DHT22;13600;50.816;4.416;2023-02-15T08:46:32;7.60;99.90
25753;DHT22;13600;50.816;4.416;2023-02-15T08:48:58;7.80;99.90
25753;DHT22;13600;50.816;4.416;2023-02-15T08:51:26;8.10;99.90
25753;DHT22;13600;50.816;4.416;2023-02-15T08:53:55;8.20;99.90
25753;DHT22;13600;50.816;4.416;2023-02-15T08:56:23;8.50;99.90
25753;DHT22;13600;50.816;4.416;2023-02-15T08:58:49;8.80;99.90
25753;DHT22;13600;50.816;4.416;2023-02-15T09:01:18;9.00;99.90
25753;DHT22;13600;50.816;4.416;2023-02-15T09:03:47;9.90;99.90
25753;DHT22;13600;50.816;4.416;2023-02-15T09:06:13;11.40;99.90
25753;DHT22;13600;50.816;4.416;2023-02-15T09:08:39;12.60;99.90
25753;DHT22;13600;50.816;4.416;2023-02-15T09:11:19;13.40;99.90
25753;DHT22;13600;50.816;4.416;2023-02-15T09:13:51;14.50;99.90
25753;DHT22;13600;50.816;4.416;2023-02-15T09:16:18;15.60;99.90
25753;DHT22;13600;50.816;4.416;2023-02-15T09:18:43;16.40;99.90
25753;DHT22;13600;50.816;4.416;2023-02-15T09:21:12;17.00;99.90
25753;DHT22;13600;50.816;4.416;2023-02-15T09:23:41;17.50;99.90
25753;DHT22;13600;50.816;4.416;2023-02-15T09:26:10;18.10;99.90
25753;DHT22;13600;50.816;4.416;2023-02-15T09:28:37;18.80;98.20
25753;DHT22;13600;50.816;4.416;2023-02-15T09:31:10;19.90;95.60
25753;DHT22;13600;50.816;4.416;2023-02-15T09:33:37;20.50;90.60
25753;DHT22;13600;50.816;4.416;2023-02-15T09:36:04;21.20;89.70
25753;DHT22;13600;50.816;4.416;2023-02-15T09:38:30;21.30;83.50
25753;DHT22;13600;50.816;4.416;2023-02-15T09:49:50;23.10;73.70
25753;DHT22;13600;50.816;4.416;2023-02-15T09:55:24;22.80;72.00
25753;DHT22;13600;50.816;4.416;2023-02-15T09:58:27;22.60;74.10
25753;DHT22;13600;50.816;4.416;2023-02-15T10:07:06;21.90;70.90
25753;DHT22;13600;50.816;4.416;2023-02-15T10:09:39;22.20;70.50
25753;DHT22;13600;50.816;4.416;2023-02-15T10:15:22;22.60;69.90
25753;DHT22;13600;50.816;4.416;2023-02-15T10:18:30;23.50;69.90
25753;DHT22;13600;50.816;4.416;2023-02-15T10:24:08;24.50;66.10
25753;DHT22;13600;50.816;4.416;2023-02-15T10:26:48;24.40;64.20
25753;DHT22;13600;50.816;4.416;2023-02-15T10:31:54;23.30;64.20
25753;DHT22;13600;50.816;4.416;2023-02-15T10:34:37;22.70;65.90
25753;DHT22;13600;50.816;4.416;2023-02-15T10:45:53;19.70;73.00
25753;DHT22;13600;50.816;4.416;2023-02-15T10:56:09;17.60;82.20
25753;DHT22;13600;50.816;4.416;2023-02-15T11:01:22;17.20;83.30
25753;DHT22;13600;50.816;4.416;2023-02-15T11:06:40;16.70;87.60
25753;DHT22;13600;50.816;4.416;2023-02-15T11:09:13;16.20;89.70
25753;DHT22;13600;50.816;4.416;2023-02-15T11:11:42;16.00;91.60
25753;DHT22;13600;50.816;4.416;2023-02-15T11:17:04;16.00;92.90
25753;DHT22;13600;50.816;4.416;2023-02-15T11:19:33;15.90;93.10
25753;DHT22;13600;50.816;4.416;2023-02-15T11:22:04;15.80;93.90
25753;DHT22;13600;50.816;4.416;2023-02-15T11:24:33;15.70;94.60
25753;DHT22;13600;50.816;4.416;2023-02-15T11:27:13;15.70;94.90
25753;DHT22;13600;50.816;4.416;2023-02-15T11:32:46;15.80;94.80
25753;DHT22;13600;50.816;4.416;2023-02-15T11:35:40;16.00;95.50
25753;DHT22;13600;50.816;4.416;2023-02-15T11:38:32;16.40;95.00
25753;DHT22;13600;50.816;4.416;2023-02-15T11:41:11;16.90;94.40
25753;DHT22;13600;50.816;4.416;2023-02-15T11:43:49;17.00;93.30
25753;DHT22;13600;50.816;4.416;2023-02-15T11:46:17;17.00;92.80
25753;DHT22;13600;50.816;4.416;2023-02-15T11:48:44;16.90;92.70
25753;DHT22;13600;50.816;4.416;2023-02-15T11:51:14;17.10;93.10
25753;DHT22;13600;50.816;4.416;2023-02-15T11:53:42;18.00;92.70
25753;DHT22;13600;50.816;4.416;2023-02-15T11:56:26;18.90;90.80
25753;DHT22;13600;50.816;4.416;2023-02-15T11:59:06;18.60;88.10
25753;DHT22;13600;50.816;4.416;2023-02-15T12:01:42;18.80;89.40
25753;DHT22;13600;50.816;4.416;2023-02-15T12:04:30;19.30;87.10
25753;DHT22;13600;50.816;4.416;2023-02-15T12:07:14;20.80;83.60
25753;DHT22;13600;50.816;4.416;2023-02-15T12:09:48;22.00;79.90
25753;DHT22;13600;50.816;4.416;2023-02-15T12:12:21;22.00;75.40
25753;DHT22;13600;50.816;4.416;2023-02-15T12:14:49;22.00;76.90
25753;DHT22;13600;50.816;4.416;2023-02-15T12:17:16;21.40;77.30
25753;DHT22;13600;50.816;4.416;2023-02-15T12:19:43;21.10;79.40
25753;DHT22;13600;50.816;4.416;2023-02-15T12:22:31;20.80;80.40
25753;DHT22;13600;50.816;4.416;2023-02-15T12:25:25;20.40;80.60
25753;DHT22;13600;50.816;4.416;2023-02-15T12:27:49;20.20;80.20
25753;DHT22;13600;50.816;4.416;2023-02-15T12:30:32;19.90;81.30
25753;DHT22;13600;50.816;4.416;2023-02-15T12:35:39;20.10;83.10
25753;DHT22;13600;50.816;4.416;2023-02-15T12:38:25;20.40;81.60
25753;DHT22;13600;50.816;4.416;2023-02-15T12:41:04;20.50;80.00
25753;DHT22;13600;50.816;4.416;2023-02-15T12:43:35;20.50;81.30
25753;DHT22;13600;50.816;4.416;2023-02-15T12:48:45;21.80;78.10
25753;DHT22;13600;50.816;4.416;2023-02-15T12:51:14;22.90;76.60
25753;DHT22;13600;50.816;4.416;2023-02-15T12:53:41;23.40;73.10
25753;DHT22;13600;50.816;4.416;2023-02-15T12:56:09;23.70;72.20
25753;DHT22;13600;50.816;4.416;2023-02-15T12:58:39;24.80;70.00
25753;DHT22;13600;50.816;4.416;2023-02-15T13:01:16;25.40;67.80
25753;DHT22;13600;50.816;4.416;2023-02-15T13:04:06;25.60;66.90
25753;DHT22;13600;50.816;4.416;2023-02-15T13:06:49;25.00;66.10
25753;DHT22;13600;50.816;4.416;2023-02-15T13:11:51;24.50;67.20
25753;DHT22;13600;50.816;4.416;2023-02-15T13:14:31;24.40;66.80
25753;DHT22;13600;50.816;4.416;2023-02-15T13:17:01;24.00;67.60
25753;DHT22;13600;50.816;4.416;2023-02-15T13:19:44;24.40;68.50
25753;DHT22;13600;50.816;4.416;2023-02-15T13:22:16;24.50;67.00
25753;DHT22;13600;50.816;4.416;2023-02-15T13:24:43;24.80;67.10
25753;DHT22;13600;50.816;4.416;2023-02-15T13:27:15;25.00;66.50
25753;DHT22;13600;50.816;4.416;2023-02-15T13:29:49;25.20;65.30
25753;DHT22;13600;50.816;4.416;2023-02-15T13:32:31;26.30;64.80
25753;DHT22;13600;50.816;4.416;2023-02-15T13:35:00;26.50;63.40
25753;DHT22;13600;50.816;4.416;2023-02-15T13:43:20;23.60;67.40
25753;DHT22;13600;50.816;4.416;2023-02-15T13:49:15;22.50;70.30
25753;DHT22;13600;50.816;4.416;2023-02-15T13:55:08;21.80;72.90
25753;DHT22;13600;50.816;4.416;2023-02-15T13:57:56;22.30;72.30
25753;DHT22;13600;50.816;4.416;2023-02-15T14:11:36;21.60;74.50
25753;DHT22;13600;50.816;4.416;2023-02-15T14:19:46;22.50;74.70
25753;DHT22;13600;50.816;4.416;2023-02-15T14:25:20;22.80;73.40
25753;DHT22;13600;50.816;4.416;2023-02-15T14:30:25;21.20;74.80
25753;DHT22;13600;50.816;4.416;2023-02-15T14:32:56;20.10;77.80
25753;DHT22;13600;50.816;4.416;2023-02-15T14:35:27;19.60;79.20
25753;DHT22;13600;50.816;4.416;2023-02-15T14:43:51;18.80;83.90
25753;DHT22;13600;50.816;4.416;2023-02-15T14:46:24;18.80;85.00
25753;DHT22;13600;50.816;4.416;2023-02-15T14:48:55;18.50;87.40
25753;DHT22;13600;50.816;4.416;2023-02-15T14:54:10;18.40;88.20
25753;DHT22;13600;50.816;4.416;2023-02-15T14:56:36;18.30;88.30
25753;DHT22;13600;50.816;4.416;2023-02-15T14:59:14;18.10;89.80
25753;DHT22;13600;50.816;4.416;2023-02-15T15:01:41;17.90;90.30
25753;DHT22;13600;50.816;4.416;2023-02-15T15:04:12;17.90;90.20
25753;DHT22;13600;50.816;4.416;2023-02-15T15:06:42;17.50;91.20
25753;DHT22;13600;50.816;4.416;2023-02-15T15:09:25;17.20;92.20
25753;DHT22;13600;50.816;4.416;2023-02-15T15:11:55;17.00;93.00
25753;DHT22;13600;50.816;4.416;2023-02-15T15:14:39;16.90;94.00
25753;DHT22;13600;50.816;4.416;2023-02-15T15:17:06;16.80;94.70
25753;DHT22;13600;50.816;4.416;2023-02-15T15:22:27;16.70;96.00
25753;DHT22;13600;50.816;4.416;2023-02-15T15:32:59;16.10;99.90
25753;DHT22;13600;50.816;4.416;2023-02-15T15:38:56;15.90;99.90
25753;DHT22;13600;50.816;4.416;2023-02-15T15:47:26;15.90;99.90
25753;DHT22;13600;50.816;4.416;2023-02-15T15:49:57;15.80;99.90
25753;DHT22;13600;50.816;4.416;2023-02-15T15:52:23;15.60;99.90
25753;DHT22;13600;50.816;4.416;2023-02-15T15:55:18;15.60;99.90
25753;DHT22;13600;50.816;4.416;2023-02-15T15:57:47;15.40;99.90
25753;DHT22;13600;50.816;4.416;2023-02-15T16:01:14;15.50;99.90
25753;DHT22;13600;50.816;4.416;2023-02-15T16:03:51;15.30;99.90
25753;DHT22;13600;50.816;4.416;2023-02-15T16:06:35;15.20;99.90
25753;DHT22;13600;50.816;4.416;2023-02-15T16:09:30;15.20;99.90
25753;DHT22;13600;50.816;4.416;2023-02-15T16:11:59;15.30;99.90
25753;DHT22;13600;50.816;4.416;2023-02-15T16:14:34;15.20;99.90
25753;DHT22;13600;50.816;4.416;2023-02-15T16:17:01;15.20;99.90
25753;DHT22;13600;50.816;4.416;2023-02-15T16:19:49;15.30;99.90
25753;DHT22;13600;50.816;4.416;2023-02-15T16:22:26;15.10;99.90
25753;DHT22;13600;50.816;4.416;2023-02-15T16:27:46;15.10;99.90
25753;DHT22;13600;50.816;4.416;2023-02-15T16:33:03;14.60;99.90
25753;DHT22;13600;50.816;4.416;2023-02-15T16:35:30;14.50;99.90
25753;DHT22;13600;50.816;4.416;2023-02-15T16:37:56;14.50;99.90
25753;DHT22;13600;50.816;4.416;2023-02-15T16:42:57;14.40;99.90
25753;DHT22;13600;50.816;4.416;2023-02-15T16:45:26;14.20;99.90
25753;DHT22;13600;50.816;4.416;2023-02-15T16:47:56;14.00;99.90
25753;DHT22;13600;50.816;4.416;2023-02-15T16:50:30;13.90;99.90
25753;DHT22;13600;50.816;4.416;2023-02-15T16:52:57;13.90;99.90
25753;DHT22;13600;50.816;4.416;2023-02-15T16:55:26;13.80;99.90
25753;DHT22;13600;50.816;4.416;2023-02-15T16:57:57;13.80;99.90
25753;DHT22;13600;50.816;4.416;2023-02-15T17:00:26;13.60;99.90
25753;DHT22;13600;50.816;4.416;2023-02-15T17:05:46;13.70;99.90
25753;DHT22;13600;50.816;4.416;2023-02-15T17:13:38;13.60;99.90
25753;DHT22;13600;50.816;4.416;2023-02-15T17:18:44;13.30;99.90
25753;DHT22;13600;50.816;4.416;2023-02-15T17:21:18;13.20;99.90
25753;DHT22;13600;50.816;4.416;2023-02-15T17:23:47;13.10;99.90
25753;DHT22;13600;50.816;4.416;2023-02-15T17:26:27;12.90;99.90
25753;DHT22;13600;50.816;4.416;2023-02-15T17:28:56;12.90;99.90
25753;DHT22;13600;50.816;4.416;2023-02-15T17:31:26;12.90;99.90
25753;DHT22;13600;50.816;4.416;2023-02-15T17:33:56;12.80;99.90
25753;DHT22;13600;50.816;4.416;2023-02-15T17:36:25;12.80;99.90
25753;DHT22;13600;50.816;4.416;2023-02-15T17:41:41;12.90;99.90
25753;DHT22;13600;50.816;4.416;2023-02-15T17:44:07;12.60;99.90
25753;DHT22;13600;50.816;4.416;2023-02-15T17:46:37;12.50;99.90
25753;DHT22;13600;50.816;4.416;2023-02-15T17:49:03;12.40;99.90
25753;DHT22;13600;50.816;4.416;2023-02-15T17:51:30;12.40;99.90
25753;DHT22;13600;50.816;4.416;2023-02-15T17:53:57;12.30;99.90
25753;DHT22;13600;50.816;4.416;2023-02-15T17:56:41;12.30;99.90
25753;DHT22;13600;50.816;4.416;2023-02-15T17:59:07;12.20;99.90
25753;DHT22;13600;50.816;4.416;2023-02-15T18:01:37;12.20;99.90
25753;DHT22;13600;50.816;4.416;2023-02-15T18:04:22;12.30;99.90
25753;DHT22;13600;50.816;4.416;2023-02-15T18:07:09;12.30;99.90
25753;DHT22;13600;50.816;4.416;2023-02-15T18:09:55;12.30;99.90
25753;DHT22;13600;50.816;4.416;2023-02-15T18:12:39;12.40;99.90
25753;DHT22;13600;50.816;4.416;2023-02-15T18:15:06;12.40;99.90
25753;DHT22;13600;50.816;4.416;2023-02-15T18:17:38;12.50;99.90
25753;DHT22;13600;50.816;4.416;2023-02-15T18:20:27;12.60;99.90
25753;DHT22;13600;50.816;4.416;2023-02-15T18:22:54;12.40;99.90
25753;DHT22;13600;50.816;4.416;2023-02-15T18:25:21;12.30;99.90
25753;DHT22;13600;50.816;4.416;2023-02-15T18:27:50;12.40;99.90
25753;DHT22;13600;50.816;4.416;2023-02-15T18:30:18;12.10;99.90
25753;DHT22;13600;50.816;4.416;2023-02-15T18:32:46;11.90;99.90
25753;DHT22;13600;50.816;4.416;2023-02-15T18:35:20;11.80;99.90
25753;DHT22;13600;50.816;4.416;2023-02-15T18:37:47;11.80;99.90
25753;DHT22;13600;50.816;4.416;2023-02-15T18:40:15;11.90;99.90
25753;DHT22;13600;50.816;4.416;2023-02-15T18:42:41;12.00;99.90
25753;DHT22;13600;50.816;4.416;2023-02-15T18:45:26;12.00;99.90
25753;DHT22;13600;50.816;4.416;2023-02-15T18:47:56;11.90;99.90
25753;DHT22;13600;50.816;4.416;2023-02-15T18:50:23;11.80;99.90
25753;DHT22;13600;50.816;4.416;2023-02-15T18:52:50;11.80;99.90
25753;DHT22;13600;50.816;4.416;2023-02-15T18:57:44;11.70;99.90
25753;DHT22;13600;50.816;4.416;2023-02-15T19:00:23;11.70;99.90
25753;DHT22;13600;50.816;4.416;2023-02-15T19:02:57;11.90;99.90